createdAt,value
2018-03-18T00:00:56.837Z,0.00
2018-03-18T00:01:56.778Z,0.00
2018-03-18T00:02:56.720Z,0.00
2018-03-18T00:03:56.662Z,0.00
2018-03-18T00:04:56.603Z,0.00
2018-03-18T00:05:56.543Z,0.00
2018-03-18T00:06:56.485Z,0.00
2018-03-18T00:07:56.427Z,0.00
2018-03-18T00:08:56.368Z,0.00
2018-03-18T00:09:56.308Z,0.00
2018-03-18T00:10:56.250Z,0.00
2018-03-18T00:11:56.192Z,0.00
2018-03-18T00:12:56.134Z,0.00
2018-03-18T00:13:56.074Z,0.00
2018-03-18T00:14:56.016Z,0.00
2018-03-18T00:15:55.965Z,0.00
2018-03-18T00:16:55.899Z,0.00
2018-03-18T00:17:55.840Z,0.00
2018-03-18T00:18:55.781Z,0.00
2018-03-18T00:19:55.725Z,0.00
2018-03-18T00:20:55.665Z,0.00
2018-03-18T00:21:55.605Z,0.00
2018-03-18T00:22:55.548Z,0.00
2018-03-18T00:23:55.488Z,0.00
2018-03-18T00:24:55.430Z,0.00
2018-03-18T00:25:55.370Z,0.00
2018-03-18T00:26:55.314Z,0.00
2018-03-18T00:27:55.254Z,0.00
2018-03-18T00:28:55.196Z,0.00
2018-03-18T00:29:55.136Z,0.00
2018-03-18T00:30:55.078Z,0.00
2018-03-18T00:31:55.020Z,0.00
2018-03-18T00:32:54.962Z,0.00
2018-03-18T00:33:54.902Z,0.00
2018-03-18T00:34:54.844Z,0.00
2018-03-18T00:35:54.786Z,0.00
2018-03-18T00:36:54.727Z,0.00
2018-03-18T00:37:54.668Z,0.00
2018-03-18T00:38:54.609Z,0.00
2018-03-18T00:39:54.551Z,0.00
2018-03-18T00:40:54.493Z,0.00
2018-03-18T00:41:54.433Z,0.00
2018-03-18T00:42:54.377Z,0.00
2018-03-18T00:43:54.317Z,0.00
2018-03-18T00:44:54.260Z,0.00
2018-03-18T00:45:54.199Z,0.00
2018-03-18T00:46:54.148Z,0.00
2018-03-18T00:47:54.088Z,0.00
2018-03-18T00:48:54.025Z,0.00
2018-03-18T00:49:53.971Z,0.00
2018-03-18T00:50:53.907Z,0.00
2018-03-18T00:51:53.848Z,0.00
2018-03-18T00:52:53.795Z,0.00
2018-03-18T00:53:53.730Z,0.00
2018-03-18T00:54:53.673Z,0.00
2018-03-18T00:55:53.614Z,0.00
2018-03-18T00:56:53.555Z,0.00
2018-03-18T00:57:53.501Z,0.00
2018-03-18T00:58:53.442Z,0.00
2018-03-18T00:59:53.383Z,0.00
2018-03-18T01:00:53.321Z,0.00
2018-03-18T01:01:53.266Z,0.00
2018-03-18T01:02:53.203Z,0.00
2018-03-18T01:03:53.145Z,0.00
2018-03-18T01:04:53.086Z,0.00
2018-03-18T01:05:53.027Z,0.00
2018-03-18T01:06:52.968Z,0.00
2018-03-18T01:07:52.910Z,0.00
2018-03-18T01:08:52.851Z,0.00
2018-03-18T01:09:52.792Z,0.00
2018-03-18T01:10:52.733Z,0.00
2018-03-18T01:11:52.685Z,0.00
2018-03-18T01:12:52.666Z,0.00
2018-03-18T01:13:52.557Z,0.00
2018-03-18T01:14:52.506Z,0.00
2018-03-18T01:15:52.440Z,0.00
2018-03-18T01:16:52.382Z,0.00
2018-03-18T01:17:52.322Z,0.00
2018-03-18T01:18:52.264Z,0.00
2018-03-18T01:19:52.205Z,0.00
2018-03-18T01:20:52.147Z,0.00
2018-03-18T01:21:52.087Z,0.00
2018-03-18T01:22:52.080Z,0.00
2018-03-18T01:23:51.972Z,0.00
2018-03-18T01:24:51.912Z,0.00
2018-03-18T01:25:51.853Z,0.00
2018-03-18T01:26:51.794Z,0.00
2018-03-18T01:27:51.735Z,0.00
2018-03-18T01:28:51.678Z,0.00
2018-03-18T01:29:51.618Z,0.00
2018-03-18T01:30:51.563Z,0.00
2018-03-18T01:31:51.550Z,0.00
2018-03-18T01:32:51.442Z,0.00
2018-03-18T01:33:51.432Z,0.00
2018-03-18T01:34:51.324Z,0.00
2018-03-18T01:35:51.265Z,0.00
2018-03-18T01:36:51.206Z,0.00
2018-03-18T01:37:51.147Z,0.00
2018-03-18T01:38:51.089Z,0.00
2018-03-18T01:39:51.030Z,0.00
2018-03-18T01:40:50.974Z,0.00
2018-03-18T01:41:50.911Z,0.00
2018-03-18T01:42:50.858Z,0.00
2018-03-18T01:43:50.796Z,0.00
2018-03-18T01:44:50.736Z,0.00
2018-03-18T01:45:50.677Z,0.00
2018-03-18T01:46:50.618Z,0.00
2018-03-18T01:47:50.559Z,0.00
2018-03-18T01:48:50.511Z,0.00
2018-03-18T01:49:50.440Z,0.00
2018-03-18T01:50:50.382Z,0.00
2018-03-18T01:51:50.323Z,0.00
2018-03-18T01:52:50.268Z,0.00
2018-03-18T01:53:50.211Z,0.00
2018-03-18T01:54:50.146Z,0.00
2018-03-18T01:55:50.090Z,0.00
2018-03-18T01:56:50.028Z,0.00
2018-03-18T01:57:49.968Z,0.00
2018-03-18T01:58:49.912Z,0.00
2018-03-18T01:59:49.851Z,0.00
2018-03-18T02:00:49.792Z,0.00
2018-03-18T02:01:49.732Z,0.00
2018-03-18T02:02:49.673Z,0.00
2018-03-18T02:03:49.615Z,0.00
2018-03-18T02:04:49.559Z,0.00
2018-03-18T02:05:49.496Z,0.00
2018-03-18T02:06:49.439Z,0.00
2018-03-18T02:07:49.379Z,0.00
2018-03-18T02:08:49.320Z,0.00
2018-03-18T02:09:49.261Z,0.00
2018-03-18T02:10:49.201Z,0.00
2018-03-18T02:11:49.142Z,0.00
2018-03-18T02:12:49.084Z,0.00
2018-03-18T02:13:49.025Z,0.00
2018-03-18T02:14:48.967Z,0.00
2018-03-18T02:15:48.907Z,0.00
2018-03-18T02:16:48.847Z,0.00
2018-03-18T02:17:48.788Z,0.00
2018-03-18T02:18:48.729Z,0.00
2018-03-18T02:19:48.670Z,0.00
2018-03-18T02:20:48.612Z,0.00
2018-03-18T02:21:48.551Z,0.00
2018-03-18T02:22:48.492Z,0.00
2018-03-18T02:23:48.434Z,0.00
2018-03-18T02:24:48.375Z,0.00
2018-03-18T02:25:48.315Z,0.00
2018-03-18T02:26:48.257Z,0.00
2018-03-18T02:27:48.201Z,0.00
2018-03-18T02:28:48.140Z,0.00
2018-03-18T02:29:48.079Z,0.00
2018-03-18T02:30:48.071Z,0.00
2018-03-18T02:31:47.962Z,0.00
2018-03-18T02:32:47.915Z,0.00
2018-03-18T02:33:47.845Z,0.00
2018-03-18T02:34:47.786Z,0.00
2018-03-18T02:35:47.727Z,0.00
2018-03-18T02:36:47.669Z,0.00
2018-03-18T02:37:47.608Z,0.00
2018-03-18T02:38:47.549Z,0.00
2018-03-18T02:39:47.490Z,0.00
2018-03-18T02:40:47.476Z,0.00
2018-03-18T02:41:47.371Z,0.00
2018-03-18T02:42:47.313Z,0.00
2018-03-18T02:43:47.254Z,0.00
2018-03-18T02:44:47.195Z,0.00
2018-03-18T02:45:47.135Z,0.00
2018-03-18T02:46:47.077Z,0.00
2018-03-18T02:47:47.017Z,0.00
2018-03-18T02:48:46.961Z,0.00
2018-03-18T02:49:46.899Z,0.00
2018-03-18T02:50:46.848Z,0.00
2018-03-18T02:51:46.788Z,0.00
2018-03-18T02:52:46.722Z,0.00
2018-03-18T02:53:46.663Z,0.00
2018-03-18T02:54:46.603Z,0.00
2018-03-18T02:55:46.544Z,0.00
2018-03-18T02:56:46.486Z,0.00
2018-03-18T02:57:46.426Z,0.00
2018-03-18T02:58:46.367Z,0.00
2018-03-18T02:59:46.311Z,0.00
2018-03-18T03:00:46.254Z,0.00
2018-03-18T03:01:46.189Z,0.00
2018-03-18T03:02:46.137Z,0.00
2018-03-18T03:03:46.072Z,0.00
2018-03-18T03:04:46.014Z,0.00
2018-03-18T03:05:45.953Z,0.00
2018-03-18T03:06:45.894Z,0.00
2018-03-18T03:07:45.835Z,0.00
2018-03-18T03:08:45.779Z,0.00
2018-03-18T03:09:45.716Z,0.00
2018-03-18T03:10:45.659Z,0.00
2018-03-18T03:11:45.598Z,0.00
2018-03-18T03:12:45.545Z,0.00
2018-03-18T03:13:45.480Z,0.00
2018-03-18T03:14:45.421Z,0.00
2018-03-18T03:15:45.361Z,0.00
2018-03-18T03:16:45.303Z,0.00
2018-03-18T03:17:45.242Z,0.00
2018-03-18T03:18:45.186Z,0.00
2018-03-18T03:19:45.128Z,0.00
2018-03-18T03:20:45.066Z,0.00
2018-03-18T03:21:45.006Z,0.00
2018-03-18T03:22:44.946Z,0.00
2018-03-18T03:23:44.888Z,0.00
2018-03-18T03:24:44.829Z,0.00
2018-03-18T03:25:44.770Z,0.00
2018-03-18T03:26:44.710Z,0.00
2018-03-18T03:27:44.651Z,0.00
2018-03-18T03:28:44.593Z,0.00
2018-03-18T03:29:44.532Z,0.00
2018-03-18T03:30:44.474Z,0.00
2018-03-18T03:31:44.432Z,0.00
2018-03-18T03:32:44.417Z,0.00
2018-03-18T03:33:44.295Z,0.00
2018-03-18T03:34:44.237Z,0.00
2018-03-18T03:35:44.177Z,0.00
2018-03-18T03:36:44.118Z,0.00
2018-03-18T03:37:44.058Z,0.00
2018-03-18T03:38:44.000Z,0.00
2018-03-18T03:39:43.940Z,0.00
2018-03-18T03:40:43.881Z,0.00
2018-03-18T03:41:43.821Z,0.00
2018-03-18T03:42:43.762Z,0.00
2018-03-18T03:43:43.704Z,0.00
2018-03-18T03:44:43.645Z,0.00
2018-03-18T03:45:43.585Z,0.00
2018-03-18T03:46:43.575Z,0.00
2018-03-18T03:47:43.466Z,0.00
2018-03-18T03:48:43.409Z,0.00
2018-03-18T03:49:43.347Z,0.00
2018-03-18T03:50:43.288Z,0.00
2018-03-18T03:51:43.234Z,0.00
2018-03-18T03:52:43.170Z,0.00
2018-03-18T03:53:43.111Z,0.00
2018-03-18T03:54:43.051Z,0.00
2018-03-18T03:55:42.992Z,0.00
2018-03-18T03:56:42.936Z,0.00
2018-03-18T03:57:42.873Z,0.00
2018-03-18T03:58:42.817Z,0.00
2018-03-18T03:59:42.757Z,0.00
2018-03-18T04:00:42.699Z,0.00
2018-03-18T04:01:42.637Z,0.00
2018-03-18T04:02:42.581Z,0.00
2018-03-18T04:03:42.519Z,0.00
2018-03-18T04:04:42.460Z,0.00
2018-03-18T04:05:42.401Z,0.00
2018-03-18T04:06:42.341Z,0.00
2018-03-18T04:07:42.282Z,0.00
2018-03-18T04:08:42.241Z,0.00
2018-03-18T04:09:42.176Z,0.00
2018-03-18T04:10:42.112Z,0.00
2018-03-18T04:11:42.045Z,0.00
2018-03-18T04:12:41.986Z,0.00
2018-03-18T04:13:41.925Z,0.00
2018-03-18T04:14:41.867Z,0.00
2018-03-18T04:15:41.809Z,0.00
2018-03-18T04:16:41.748Z,0.00
2018-03-18T04:17:41.688Z,0.00
2018-03-18T04:18:41.629Z,0.00
2018-03-18T04:19:41.570Z,0.00
2018-03-18T04:20:41.510Z,0.00
2018-03-18T04:21:41.457Z,0.00
2018-03-18T04:22:41.391Z,0.00
2018-03-18T04:23:41.336Z,0.00
2018-03-18T04:24:41.273Z,0.00
2018-03-18T04:25:41.212Z,0.00
2018-03-18T04:26:41.159Z,0.00
2018-03-18T04:27:41.094Z,0.00
2018-03-18T04:28:41.035Z,0.00
2018-03-18T04:29:40.975Z,0.00
2018-03-18T04:30:40.915Z,0.00
2018-03-18T04:31:40.857Z,0.00
2018-03-18T04:32:40.798Z,0.00
2018-03-18T04:33:40.737Z,0.00
2018-03-18T04:34:40.678Z,0.00
2018-03-18T04:35:40.618Z,0.00
2018-03-18T04:36:40.559Z,0.00
2018-03-18T04:37:40.499Z,0.00
2018-03-18T04:38:40.440Z,0.00
2018-03-18T04:39:40.381Z,4.00
2018-03-18T04:40:40.322Z,0.00
2018-03-18T04:41:40.262Z,0.00
2018-03-18T04:42:40.203Z,4.00
2018-03-18T04:43:40.143Z,0.00
2018-03-18T04:44:40.084Z,4.00
2018-03-18T04:45:40.024Z,4.00
2018-03-18T04:46:39.964Z,4.00
2018-03-18T04:47:39.905Z,4.00
2018-03-18T04:48:39.846Z,4.00
2018-03-18T04:49:39.786Z,8.00
2018-03-18T04:50:39.738Z,8.00
2018-03-18T04:51:39.673Z,8.00
2018-03-18T04:52:39.609Z,12.00
2018-03-18T04:53:39.548Z,12.00
2018-03-18T04:54:39.489Z,16.00
2018-03-18T04:55:39.430Z,20.00
2018-03-18T04:56:39.374Z,24.00
2018-03-18T04:57:39.311Z,32.00
2018-03-18T04:58:39.252Z,36.00
2018-03-18T04:59:39.193Z,40.00
2018-03-18T05:00:39.136Z,48.00
2018-03-18T05:01:39.074Z,56.00
2018-03-18T05:02:39.017Z,64.00
2018-03-18T05:03:38.955Z,72.00
2018-03-18T05:04:38.896Z,84.00
2018-03-18T05:05:38.835Z,92.00
2018-03-18T05:06:38.777Z,108.00
2018-03-18T05:07:38.718Z,120.00
2018-03-18T05:08:38.658Z,136.00
2018-03-18T05:09:38.598Z,152.00
2018-03-18T05:10:38.539Z,168.00
2018-03-18T05:11:38.479Z,188.00
2018-03-18T05:12:38.421Z,208.00
2018-03-18T05:13:38.360Z,228.00
2018-03-18T05:14:38.351Z,252.00
2018-03-18T05:15:38.243Z,272.00
2018-03-18T05:16:38.187Z,300.00
2018-03-18T05:17:38.123Z,328.00
2018-03-18T05:18:38.064Z,356.00
2018-03-18T05:19:38.004Z,388.00
2018-03-18T05:20:37.945Z,420.00
2018-03-18T05:21:37.909Z,452.00
2018-03-18T05:22:37.826Z,492.00
2018-03-18T05:23:37.767Z,524.00
2018-03-18T05:24:37.708Z,568.00
2018-03-18T05:25:37.648Z,608.00
2018-03-18T05:26:37.588Z,652.00
2018-03-18T05:27:37.530Z,700.00
2018-03-18T05:28:37.471Z,748.00
2018-03-18T05:29:37.411Z,796.00
2018-03-18T05:30:37.352Z,844.00
2018-03-18T05:31:37.292Z,892.00
2018-03-18T05:32:37.234Z,940.00
2018-03-18T05:33:37.174Z,988.00
2018-03-18T05:34:37.115Z,1036.00
2018-03-18T05:35:37.056Z,1080.00
2018-03-18T05:36:36.996Z,1128.00
2018-03-18T05:37:36.937Z,1176.00
2018-03-18T05:38:36.878Z,1224.00
2018-03-18T05:39:36.820Z,1272.00
2018-03-18T05:40:36.765Z,1328.00
2018-03-18T05:41:36.700Z,1384.00
2018-03-18T05:42:36.641Z,1432.00
2018-03-18T05:43:36.582Z,1484.00
2018-03-18T05:44:36.523Z,1532.00
2018-03-18T05:45:36.463Z,1592.00
2018-03-18T05:46:36.404Z,1644.00
2018-03-18T05:47:36.350Z,1704.00
2018-03-18T05:48:36.286Z,1760.00
2018-03-18T05:49:36.226Z,1812.00
2018-03-18T05:50:36.167Z,1864.00
2018-03-18T05:51:36.110Z,1916.00
2018-03-18T05:52:36.049Z,1976.00
2018-03-18T05:53:35.993Z,2028.00
2018-03-18T05:54:35.930Z,2080.00
2018-03-18T05:55:35.871Z,2136.00
2018-03-18T05:56:35.812Z,2192.00
2018-03-18T05:57:35.752Z,2248.00
2018-03-18T05:58:35.693Z,2304.00
2018-03-18T05:59:35.634Z,2368.00
2018-03-18T06:00:35.575Z,2424.00
2018-03-18T06:01:35.515Z,2480.00
2018-03-18T06:02:35.456Z,2548.00
2018-03-18T06:03:35.397Z,2608.00
2018-03-18T06:04:35.342Z,2668.00
2018-03-18T06:05:35.279Z,2724.00
2018-03-18T06:06:35.220Z,2780.00
2018-03-18T06:07:35.163Z,2828.00
2018-03-18T06:08:35.102Z,2900.00
2018-03-18T06:09:35.042Z,2960.00
2018-03-18T06:10:34.983Z,3024.00
2018-03-18T06:11:34.925Z,3084.00
2018-03-18T06:12:34.866Z,3140.00
2018-03-18T06:13:34.807Z,3192.00
2018-03-18T06:14:34.747Z,3252.00
2018-03-18T06:15:34.690Z,3304.00
2018-03-18T06:16:34.631Z,3340.00
2018-03-18T06:17:34.571Z,3352.00
2018-03-18T06:18:34.514Z,3384.00
2018-03-18T06:19:34.454Z,3420.00
2018-03-18T06:20:34.395Z,3440.00
2018-03-18T06:21:34.337Z,3496.00
2018-03-18T06:22:34.277Z,3588.00
2018-03-18T06:23:34.219Z,3688.00
2018-03-18T06:24:34.160Z,3816.00
2018-03-18T06:25:34.101Z,3928.00
2018-03-18T06:26:34.042Z,3984.00
2018-03-18T06:27:33.984Z,4060.00
2018-03-18T06:28:33.925Z,4092.00
2018-03-18T06:29:33.865Z,4164.00
2018-03-18T06:30:33.807Z,4256.00
2018-03-18T06:31:33.750Z,4332.00
2018-03-18T06:32:33.690Z,4388.00
2018-03-18T06:33:33.630Z,4440.00
2018-03-18T06:34:33.572Z,4508.00
2018-03-18T06:35:33.517Z,4624.00
2018-03-18T06:36:33.505Z,4728.00
2018-03-18T06:37:33.432Z,4804.00
2018-03-18T06:38:33.338Z,4900.00
2018-03-18T06:39:33.279Z,5000.00
2018-03-18T06:40:33.221Z,5104.00
2018-03-18T06:41:33.163Z,5200.00
2018-03-18T06:42:33.104Z,5292.00
2018-03-18T06:43:33.046Z,5384.00
2018-03-18T06:44:32.988Z,5476.00
2018-03-18T06:45:32.929Z,5600.00
2018-03-18T06:46:32.872Z,5732.00
2018-03-18T06:47:32.818Z,5908.00
2018-03-18T06:48:32.765Z,6060.00
2018-03-18T06:49:32.697Z,6396.00
2018-03-18T06:50:32.639Z,7816.00
2018-03-18T06:51:32.582Z,16320.00
2018-03-18T06:52:32.524Z,22560.00
2018-03-18T06:53:32.465Z,23904.00
2018-03-18T06:54:32.407Z,26400.00
2018-03-18T06:55:32.351Z,29376.00
2018-03-18T06:56:32.294Z,30240.00
2018-03-18T06:57:32.236Z,30272.00
2018-03-18T06:58:32.180Z,31360.00
2018-03-18T06:59:32.126Z,31552.00
2018-03-18T07:00:32.069Z,32096.00
2018-03-18T07:01:32.014Z,32512.00
2018-03-18T07:02:31.958Z,32256.00
2018-03-18T07:03:31.904Z,32672.00
2018-03-18T07:04:31.850Z,32192.00
2018-03-18T07:05:31.804Z,32256.00
2018-03-18T07:06:31.744Z,33376.00
2018-03-18T07:07:31.697Z,34240.00
2018-03-18T07:08:31.641Z,34720.00
2018-03-18T07:09:31.591Z,35648.00
2018-03-18T07:10:31.536Z,36576.00
2018-03-18T07:11:31.485Z,37568.00
2018-03-18T07:12:31.433Z,37888.00
2018-03-18T07:13:31.381Z,37408.00
2018-03-18T07:14:31.336Z,36704.00
2018-03-18T07:15:31.280Z,36320.00
2018-03-18T07:16:31.231Z,36416.00
2018-03-18T07:17:31.179Z,36032.00
2018-03-18T07:18:31.134Z,37216.00
2018-03-18T07:19:31.079Z,38112.00
2018-03-18T07:20:31.030Z,38432.00
2018-03-18T07:21:30.980Z,38112.00
2018-03-18T07:22:30.932Z,38624.00
2018-03-18T07:23:30.882Z,38304.00
2018-03-18T07:24:30.835Z,39744.00
2018-03-18T07:25:30.836Z,41760.00
2018-03-18T07:26:30.737Z,42816.00
2018-03-18T07:27:30.689Z,40928.00
2018-03-18T07:28:30.640Z,38688.00
2018-03-18T07:29:30.592Z,39936.00
2018-03-18T07:30:30.545Z,40288.00
2018-03-18T07:31:30.498Z,41536.00
2018-03-18T07:32:30.451Z,41696.00
2018-03-18T07:33:30.403Z,41984.00
2018-03-18T07:34:30.355Z,42208.00
2018-03-18T07:35:30.308Z,42464.00
2018-03-18T07:36:30.308Z,42976.00
2018-03-18T07:37:30.213Z,43008.00
2018-03-18T07:38:30.239Z,44448.00
2018-03-18T07:39:30.120Z,45344.00
2018-03-18T07:40:30.074Z,46240.00
2018-03-18T07:41:30.027Z,47296.00
2018-03-18T07:42:29.979Z,47904.00
2018-03-18T07:43:29.933Z,48928.00
2018-03-18T07:44:29.887Z,48928.00
2018-03-18T07:45:29.856Z,49440.00
2018-03-18T07:46:29.792Z,48192.00
2018-03-18T07:47:29.752Z,47680.00
2018-03-18T07:48:29.701Z,46464.00
2018-03-18T07:49:29.652Z,42848.00
2018-03-18T07:50:29.620Z,43072.00
2018-03-18T07:51:29.560Z,44288.00
2018-03-18T07:52:29.512Z,44896.00
2018-03-18T07:53:29.470Z,48704.00
2018-03-18T07:54:29.419Z,47968.00
2018-03-18T07:55:29.372Z,48544.00
2018-03-18T07:56:29.325Z,49024.00
2018-03-18T07:57:29.279Z,50272.00
2018-03-18T07:58:29.233Z,50720.00
2018-03-18T07:59:29.187Z,49984.00
2018-03-18T08:00:29.142Z,50304.00
2018-03-18T08:01:29.096Z,51200.00
2018-03-18T08:02:29.055Z,51968.00
2018-03-18T08:03:29.006Z,53248.00
2018-03-18T08:04:28.961Z,55488.00
2018-03-18T08:05:28.915Z,56256.00
2018-03-18T08:06:28.870Z,57184.00
2018-03-18T08:07:28.844Z,57984.00
2018-03-18T08:08:28.787Z,58848.00
2018-03-18T08:09:28.786Z,58912.00
2018-03-18T08:10:28.691Z,60992.00
2018-03-18T08:11:28.647Z,63200.00
2018-03-18T08:12:28.603Z,65536.00
2018-03-18T08:13:28.558Z,65568.00
2018-03-18T08:14:28.564Z,65024.00
2018-03-18T08:15:28.470Z,64800.00
2018-03-18T08:16:28.426Z,65856.00
2018-03-18T08:17:28.381Z,63456.00
2018-03-18T08:18:28.337Z,60128.00
2018-03-18T08:19:28.293Z,59424.00
2018-03-18T08:20:28.250Z,62272.00
2018-03-18T08:21:28.205Z,64864.00
2018-03-18T08:22:28.164Z,65728.00
2018-03-18T08:23:28.118Z,65664.00
2018-03-18T08:24:28.074Z,65216.00
2018-03-18T08:25:28.029Z,64896.00
2018-03-18T08:26:27.988Z,65888.00
2018-03-18T08:27:27.943Z,61440.00
2018-03-18T08:28:27.898Z,58688.00
2018-03-18T08:29:27.855Z,60384.00
2018-03-18T08:30:27.815Z,63424.00
2018-03-18T08:31:27.768Z,64992.00
2018-03-18T08:32:27.725Z,65888.00
2018-03-18T08:33:27.681Z,64352.00
2018-03-18T08:34:27.638Z,59872.00
2018-03-18T08:35:27.594Z,57632.00
2018-03-18T08:36:27.551Z,58080.00
2018-03-18T08:37:27.507Z,57568.00
2018-03-18T08:38:27.464Z,57984.00
2018-03-18T08:39:27.423Z,60608.00
2018-03-18T08:40:27.379Z,63584.00
2018-03-18T08:41:27.377Z,66080.00
2018-03-18T08:42:27.293Z,64928.00
2018-03-18T08:43:27.275Z,63040.00
2018-03-18T08:44:27.209Z,62720.00
2018-03-18T08:45:27.166Z,65280.00
2018-03-18T08:46:27.123Z,66592.00
2018-03-18T08:47:27.083Z,70304.00
2018-03-18T08:48:27.043Z,71200.00
2018-03-18T08:49:26.997Z,70720.00
2018-03-18T08:50:26.953Z,69664.00
2018-03-18T08:51:26.912Z,64352.00
2018-03-18T08:52:26.871Z,55712.00
2018-03-18T08:53:26.826Z,60224.00
2018-03-18T08:54:26.784Z,60096.00
2018-03-18T08:55:26.742Z,61920.00
2018-03-18T08:56:26.702Z,63872.00
2018-03-18T08:57:26.664Z,63744.00
2018-03-18T08:58:26.616Z,63360.00
2018-03-18T08:59:26.574Z,61536.00
2018-03-18T09:00:26.532Z,59936.00
2018-03-18T09:01:26.490Z,60896.00
2018-03-18T09:02:26.448Z,58432.00
2018-03-18T09:03:26.462Z,57728.00
2018-03-18T09:04:26.366Z,57376.00
2018-03-18T09:05:26.324Z,61536.00
2018-03-18T09:06:26.281Z,61312.00
2018-03-18T09:07:26.239Z,64416.00
2018-03-18T09:08:26.199Z,65184.00
2018-03-18T09:09:26.162Z,64416.00
2018-03-18T09:10:26.114Z,57216.00
2018-03-18T09:11:26.072Z,57216.00
2018-03-18T09:12:26.031Z,56512.00
2018-03-18T09:13:25.987Z,58784.00
2018-03-18T09:14:25.946Z,58432.00
2018-03-18T09:15:25.904Z,57056.00
2018-03-18T09:16:25.864Z,59232.00
2018-03-18T09:17:25.821Z,61536.00
2018-03-18T09:18:25.816Z,63776.00
2018-03-18T09:19:25.736Z,66816.00
2018-03-18T09:20:25.694Z,61600.00
2018-03-18T09:21:25.655Z,54976.00
2018-03-18T09:22:25.611Z,53056.00
2018-03-18T09:23:25.566Z,54336.00
2018-03-18T09:24:25.523Z,54592.00
2018-03-18T09:25:25.486Z,52224.00
2018-03-18T09:26:25.437Z,47776.00
2018-03-18T09:27:25.393Z,47008.00
2018-03-18T09:28:25.351Z,48544.00
2018-03-18T09:29:25.317Z,53504.00
2018-03-18T09:30:25.262Z,55968.00
2018-03-18T09:31:25.219Z,55168.00
2018-03-18T09:32:25.175Z,55648.00
2018-03-18T09:33:25.131Z,59424.00
2018-03-18T09:34:25.087Z,59680.00
2018-03-18T09:35:25.043Z,57472.00
2018-03-18T09:36:24.999Z,55872.00
2018-03-18T09:37:24.955Z,56544.00
2018-03-18T09:38:24.912Z,56928.00
2018-03-18T09:39:24.868Z,54752.00
2018-03-18T09:40:24.830Z,54656.00
2018-03-18T09:41:24.781Z,57792.00
2018-03-18T09:42:24.738Z,59744.00
2018-03-18T09:43:24.695Z,56544.00
2018-03-18T09:44:24.652Z,40160.00
2018-03-18T09:45:24.610Z,13632.00
2018-03-18T09:46:24.564Z,8372.00
2018-03-18T09:47:24.521Z,8248.00
2018-03-18T09:48:24.477Z,8176.00
2018-03-18T09:49:24.482Z,8088.00
2018-03-18T09:50:24.392Z,8004.00
2018-03-18T09:51:24.343Z,7948.00
2018-03-18T09:52:24.296Z,7860.00
2018-03-18T09:53:24.251Z,7828.00
2018-03-18T09:54:24.202Z,7744.00
2018-03-18T09:55:24.154Z,7716.00
2018-03-18T09:56:24.121Z,7692.00
2018-03-18T09:57:24.059Z,7636.00
2018-03-18T09:58:24.011Z,7644.00
2018-03-18T09:59:23.957Z,7640.00
2018-03-18T10:00:23.907Z,7564.00
2018-03-18T10:01:23.855Z,7496.00
2018-03-18T10:02:23.804Z,7476.00
2018-03-18T10:03:23.756Z,7444.00
2018-03-18T10:04:23.701Z,7380.00
2018-03-18T10:05:23.656Z,7368.00
2018-03-18T10:06:23.598Z,7336.00
2018-03-18T10:07:23.545Z,7288.00
2018-03-18T10:08:23.494Z,7224.00
2018-03-18T10:09:23.446Z,7184.00
2018-03-18T10:10:23.388Z,7156.00
2018-03-18T10:11:23.339Z,7108.00
2018-03-18T10:12:23.283Z,7084.00
2018-03-18T10:13:23.229Z,7080.00
2018-03-18T10:14:23.177Z,7056.00
2018-03-18T10:15:23.124Z,7000.00
2018-03-18T10:16:23.071Z,6976.00
2018-03-18T10:17:23.017Z,6932.00
2018-03-18T10:18:22.964Z,6888.00
2018-03-18T10:19:22.910Z,6836.00
2018-03-18T10:20:22.987Z,6744.00
2018-03-18T10:21:22.803Z,6712.00
2018-03-18T10:22:22.749Z,6616.00
2018-03-18T10:23:22.696Z,6580.00
2018-03-18T10:24:22.643Z,6596.00
2018-03-18T10:25:22.590Z,6584.00
2018-03-18T10:26:22.534Z,6544.00
2018-03-18T10:27:22.481Z,6540.00
2018-03-18T10:28:22.428Z,6496.00
2018-03-18T10:29:22.374Z,6400.00
2018-03-18T10:30:22.319Z,6348.00
2018-03-18T10:31:22.265Z,6376.00
2018-03-18T10:32:22.212Z,6388.00
2018-03-18T10:33:22.156Z,6424.00
2018-03-18T10:34:22.102Z,6424.00
2018-03-18T10:35:22.050Z,6416.00
2018-03-18T10:36:21.994Z,6380.00
2018-03-18T10:37:21.939Z,6336.00
2018-03-18T10:38:21.885Z,6272.00
2018-03-18T10:39:21.831Z,6244.00
2018-03-18T10:40:21.788Z,6164.00
2018-03-18T10:41:21.725Z,6156.00
2018-03-18T10:42:21.675Z,6164.00
2018-03-18T10:43:21.615Z,6164.00
2018-03-18T10:44:21.561Z,6128.00
2018-03-18T10:45:21.506Z,6140.00
2018-03-18T10:46:21.452Z,6148.00
2018-03-18T10:47:21.464Z,6148.00
2018-03-18T10:48:21.344Z,6104.00
2018-03-18T10:49:21.289Z,6048.00
2018-03-18T10:50:21.234Z,5976.00
2018-03-18T10:51:21.181Z,5952.00
2018-03-18T10:52:21.127Z,5880.00
2018-03-18T10:53:21.073Z,5804.00
2018-03-18T10:54:21.018Z,5804.00
2018-03-18T10:55:20.964Z,5784.00
2018-03-18T10:56:20.910Z,5772.00
2018-03-18T10:57:20.855Z,5748.00
2018-03-18T10:58:20.800Z,5704.00
2018-03-18T10:59:20.756Z,5680.00
2018-03-18T11:00:20.693Z,5656.00
2018-03-18T11:01:20.637Z,5624.00
2018-03-18T11:02:20.582Z,5584.00
2018-03-18T11:03:20.548Z,5540.00
2018-03-18T11:04:20.480Z,5488.00
2018-03-18T11:05:20.448Z,5444.00
2018-03-18T11:06:20.365Z,5420.00
2018-03-18T11:07:20.377Z,5380.00
2018-03-18T11:08:20.313Z,5344.00
2018-03-18T11:09:20.201Z,5316.00
2018-03-18T11:10:20.170Z,5268.00
2018-03-18T11:11:20.110Z,5228.00
2018-03-18T11:12:20.038Z,5188.00
2018-03-18T11:13:19.983Z,5140.00
2018-03-18T11:14:19.929Z,5124.00
2018-03-18T11:15:19.875Z,5088.00
2018-03-18T11:16:19.879Z,5060.00
2018-03-18T11:17:19.765Z,5032.00
2018-03-18T11:18:19.711Z,4980.00
2018-03-18T11:19:19.691Z,4940.00
2018-03-18T11:20:19.602Z,4892.00
2018-03-18T11:21:19.546Z,4840.00
2018-03-18T11:22:19.492Z,4756.00
2018-03-18T11:23:19.438Z,4680.00
2018-03-18T11:24:19.384Z,4692.00
2018-03-18T11:25:19.328Z,4720.00
2018-03-18T11:26:19.274Z,4724.00
2018-03-18T11:27:19.224Z,4712.00
2018-03-18T11:28:19.166Z,4704.00
2018-03-18T11:29:19.111Z,4680.00
2018-03-18T11:30:19.057Z,4676.00
2018-03-18T11:31:19.003Z,4648.00
2018-03-18T11:32:18.948Z,4644.00
2018-03-18T11:33:18.893Z,4636.00
2018-03-18T11:34:18.839Z,4616.00
2018-03-18T11:35:18.784Z,4600.00
2018-03-18T11:36:18.732Z,4588.00
2018-03-18T11:37:18.679Z,4556.00
2018-03-18T11:38:18.621Z,4556.00
2018-03-18T11:39:18.568Z,4532.00
2018-03-18T11:40:18.512Z,4520.00
2018-03-18T11:41:18.458Z,4500.00
2018-03-18T11:42:18.403Z,4472.00
2018-03-18T11:43:18.355Z,4444.00
2018-03-18T11:44:18.294Z,4420.00
2018-03-18T11:45:18.239Z,4420.00
2018-03-18T11:46:18.184Z,4440.00
2018-03-18T11:47:18.130Z,4436.00
2018-03-18T11:48:18.076Z,4416.00
2018-03-18T11:49:18.022Z,4400.00
2018-03-18T11:50:17.966Z,4380.00
2018-03-18T11:51:17.912Z,4360.00
2018-03-18T11:52:17.861Z,4348.00
2018-03-18T11:53:17.852Z,4324.00
2018-03-18T11:54:17.756Z,4300.00
2018-03-18T11:55:17.694Z,4276.00
2018-03-18T11:56:17.640Z,4252.00
2018-03-18T11:57:17.590Z,4236.00
2018-03-18T11:58:17.535Z,4220.00
2018-03-18T11:59:17.476Z,4192.00
2018-03-18T12:00:17.422Z,4168.00
2018-03-18T12:01:17.366Z,4160.00
2018-03-18T12:02:17.312Z,4136.00
2018-03-18T12:03:17.257Z,4120.00
2018-03-18T12:04:17.202Z,4104.00
2018-03-18T12:05:17.146Z,4088.00
2018-03-18T12:06:17.093Z,4064.00
2018-03-18T12:07:17.038Z,4056.00
2018-03-18T12:08:16.984Z,4044.00
2018-03-18T12:09:16.927Z,4024.00
2018-03-18T12:10:16.873Z,4012.00
2018-03-18T12:11:16.819Z,3996.00
2018-03-18T12:12:16.765Z,3980.00
2018-03-18T12:13:16.709Z,3968.00
2018-03-18T12:14:16.658Z,3956.00
2018-03-18T12:15:16.603Z,3932.00
2018-03-18T12:16:16.547Z,3912.00
2018-03-18T12:17:16.490Z,3896.00
2018-03-18T12:18:16.443Z,3888.00
2018-03-18T12:19:16.382Z,3880.00
2018-03-18T12:20:16.327Z,3868.00
2018-03-18T12:21:16.272Z,3860.00
2018-03-18T12:22:16.217Z,3848.00
2018-03-18T12:23:16.163Z,3828.00
2018-03-18T12:24:16.108Z,3816.00
2018-03-18T12:25:16.053Z,3808.00
2018-03-18T12:26:16.039Z,3788.00
2018-03-18T12:27:15.944Z,3780.00
2018-03-18T12:28:15.891Z,3760.00